Cooksville, Illinois
Current Conditions -  °F | °C
As of 3:56 PM on Friday 24 Oct 2014 (Local Time) from KBMI Reporting Station
Light Rain Light Rain  
Wind Chill: 68°   Ceiling: Unl
Heat Index: 68°   Visibility: 10mi
Dew Point: 52°   Wind: 12mph
Humidity: 56%   Direction: 230°SW
Pressure: 30.01"   Gusts: NA
Location:  40.54°N, 88.72°W
Report Text: KBMI 242056Z 23010KT 10SM -RA CLR 20/11 A3001 RMK AO2 56017 60000 T02000111 P0000 SLP160
Loading
Personal Weather Stations






























Interactive Weather Map
Tropical Storm Tracking
New forecast layout! Learn more

10-Day Weather Forecast

Advertisements
Track Severe Weather on mobile